Time;durP1;ratioP1;P1;durP2;ratioP2;P2;SDS_P1;SDS_P2;PMS_P1;PMS_P2;Temp;Humidity;BMP_temperature;BMP_pressure;BME280_temperature;BME280_humidity;BME280_pressure;Samples;Min_cycle;Max_cycle;Signal;HPM_P1;HPM_P2
2023/09/15 00:00:35;;;;;;;3.80;3.00;;;;;;;19.12;67.84;99522.23;232826;214;145840;-67
2023/09/15 00:05:59;;;;;;;6.30;3.30;;;;;;;19.16;67.75;99524.00;232136;213;1009969;-68
2023/09/15 00:11:18;;;;;;;5.40;3.40;;;;;;;19.16;67.90;99526.70;232619;214;137077;-65
2023/09/15 00:16:26;;;;;;;4.70;3.00;;;;;;;19.18;67.82;99527.84;232796;213;147812;-68
2023/09/15 00:21:34;;;;;;;6.20;3.30;;;;;;;19.16;68.18;99528.34;232731;214;138836;-68
2023/09/15 00:39:25;;;;;;;4.50;3.20;;;;;;;19.05;68.34;99525.55;233760;215;139323;-65
2023/09/15 00:44:30;;;;;;;;;;;;;;;19.08;68.49;99531.58;232646;215;137785;-76
2023/09/15 00:49:37;;;;;;;5.00;3.80;;;;;;;19.09;68.58;99531.31;232895;215;146153;-70
2023/09/15 00:54:44;;;;;;;5.50;3.80;;;;;;;19.18;68.43;99531.94;232682;215;139525;-70
2023/09/15 00:59:49;;;;;;;5.20;3.80;;;;;;;19.21;68.36;99534.39;232574;215;136720;-68
2023/09/15 01:04:55;;;;;;;8.40;4.00;;;;;;;19.17;68.26;99535.98;232626;215;148936;-65
2023/09/15 01:10:12;;;;;;;5.00;3.50;;;;;;;19.13;68.45;99541.58;232682;215;139968;-70
2023/09/15 01:15:22;;;;;;;5.90;3.40;;;;;;;19.04;68.43;99544.39;232830;215;137868;-64
2023/09/15 01:21:11;;;;;;;7.10;3.40;;;;;;;18.99;68.80;99539.53;232613;215;146584;-64
2023/09/15 01:26:55;;;;;;;5.20;3.60;;;;;;;18.96;69.13;99546.00;232697;214;139573;-65
2023/09/15 01:32:01;;;;;;;9.60;4.00;;;;;;;18.94;69.38;99546.50;232622;215;137083;-63
2023/09/15 01:37:06;;;;;;;5.80;3.90;;;;;;;18.97;69.15;99550.20;232846;215;147235;-64
2023/09/15 01:42:14;;;;;;;6.40;3.70;;;;;;;18.92;69.35;99550.45;232644;215;140380;-63
2023/09/15 01:47:22;;;;;;;7.20;3.60;;;;;;;18.85;69.62;99549.08;232691;215;136942;-65
2023/09/15 01:52:29;;;;;;;4.60;3.50;;;;;;;18.83;69.94;99548.96;232676;215;148180;-63
2023/09/15 01:57:34;;;;;;;5.70;3.60;;;;;;;18.80;70.11;99549.00;232694;215;139631;-63
2023/09/15 02:02:40;;;;;;;4.30;3.40;;;;;;;18.76;70.10;99548.99;232608;215;138343;-65
2023/09/15 02:07:45;;;;;;;4.20;3.30;;;;;;;18.68;70.39;99548.74;232826;215;147551;-64
2023/09/15 02:12:53;;;;;;;6.90;3.50;;;;;;;18.59;70.60;99554.96;232892;215;141226;-65
2023/09/15 02:17:59;;;;;;;5.80;3.30;;;;;;;18.50;70.99;99552.85;232661;215;137061;-71
2023/09/15 02:23:13;;;;;;;4.90;3.10;;;;;;;18.43;71.38;99557.21;232966;213;146657;-73
2023/09/15 02:28:19;;;;;;;5.70;3.30;;;;;;;18.43;71.62;99562.05;232780;213;140370;-71
2023/09/15 02:33:26;;;;;;;5.40;3.40;;;;;;;18.45;71.74;99566.73;233034;215;137240;-73
2023/09/15 02:38:31;;;;;;;5.10;3.60;;;;;;;18.47;71.70;99564.45;232581;214;146661;-71
2023/09/15 02:43:39;;;;;;;6.20;3.70;;;;;;;18.48;71.79;99569.60;232852;215;139578;-68
2023/09/15 02:48:54;;;;;;;6.20;3.70;;;;;;;18.47;71.92;99570.88;232651;215;137916;-71
2023/09/15 02:54:03;;;;;;;5.80;3.20;;;;;;;18.44;71.80;99572.08;232789;215;146329;-64
2023/09/15 02:59:11;;;;;;;6.20;3.30;;;;;;;18.41;72.01;99576.05;232638;215;139751;-66
2023/09/15 03:04:19;;;;;;;4.50;3.30;;;;;;;18.42;72.12;99584.94;232695;215;137520;-66
2023/09/15 03:09:25;;;;;;;6.20;4.00;;;;;;;18.49;72.06;99581.14;232628;215;147578;-66
2023/09/15 03:14:33;;;;;;;7.10;3.80;;;;;;;18.55;71.62;99577.39;232667;215;139927;-64
2023/09/15 03:19:41;;;;;;;8.00;4.10;;;;;;;18.43;71.73;99574.99;232895;215;137058;-65
2023/09/15 03:24:51;;;;;;;4.70;3.40;;;;;;;18.36;71.94;99572.95;232922;214;148962;-64
2023/09/15 03:30:32;;;;;;;6.00;3.10;;;;;;;18.26;72.17;99579.02;235659;214;138823;-64
2023/09/15 03:35:37;;;;;;;6.40;3.40;;;;;;;18.23;72.38;99580.03;234400;215;138396;-65
2023/09/15 03:40:40;;;;;;;5.50;3.80;;;;;;;18.23;72.31;99582.84;234571;215;147558;-66
2023/09/15 03:45:46;;;;;;;7.90;3.80;;;;;;;18.24;72.31;99589.42;234668;215;138997;-67
2023/09/15 03:50:51;;;;;;;122.80;104.10;;;;;;;18.28;72.55;99596.31;234541;215;136874;-66
2023/09/15 03:55:55;;;;;;;40.60;31.10;;;;;;;18.26;72.66;99598.20;234602;214;148795;-64
2023/09/15 04:01:00;;;;;;;106.60;95.10;;;;;;;18.26;72.88;99605.25;234541;215;138804;-64
2023/09/15 04:06:05;;;;;;;6.80;4.50;;;;;;;18.31;73.43;99608.36;234646;214;140924;-62
2023/09/15 04:11:09;;;;;;;5.50;3.70;;;;;;;18.57;73.01;99610.84;234583;215;147266;-63
2023/09/15 04:19:17;;;;;;;235.80;144.30;;;;;;;18.55;71.97;99613.16;231325;224;724367;-69
2023/09/15 04:24:22;;;;;;;9.20;5.70;;;;;;;18.48;72.16;99612.67;232793;217;138110;-66
2023/09/15 04:29:29;;;;;;;9.00;5.90;;;;;;;18.41;72.03;99617.73;232762;216;144814;-65
2023/09/15 04:34:38;;;;;;;6.50;4.50;;;;;;;18.36;72.10;99624.30;233111;216;139195;-64
2023/09/15 04:39:45;;;;;;;41.70;31.00;;;;;;;18.31;72.33;99631.78;232704;216;140084;-64
2023/09/15 04:44:53;;;;;;;6.40;4.30;;;;;;;18.25;72.44;99641.10;232694;216;144884;-69
2023/09/15 04:50:02;;;;;;;97.00;67.10;;;;;;;18.18;72.73;99644.55;232802;217;141859;-71
2023/09/15 04:55:09;;;;;;;8.50;4.40;;;;;;;18.22;72.91;99650.46;232768;217;137356;-62
2023/09/15 05:00:23;;;;;;;8.10;4.40;;;;;;;18.22;72.49;99651.77;232833;216;144852;-61
2023/09/15 05:05:55;;;;;;;7.70;4.10;;;;;;;18.17;72.69;99658.36;232506;217;139630;-62
2023/09/15 05:11:01;;;;;;;5.00;3.80;;;;;;;18.17;72.66;99661.96;232801;217;136535;-61
2023/09/15 05:16:08;;;;;;;11.30;4.70;;;;;;;18.13;72.77;99661.29;232578;217;147208;-62
2023/09/15 05:21:16;;;;;;;6.10;3.90;;;;;;;18.08;73.00;99660.11;232659;216;140184;-60
2023/09/15 05:26:27;;;;;;;8.80;4.10;;;;;;;18.12;73.37;99666.02;232874;216;137764;-58
2023/09/15 05:31:33;;;;;;;192.50;154.10;;;;;;;18.22;73.44;99659.81;232520;216;146013;-60
2023/09/15 05:36:40;;;;;;;9.90;5.30;;;;;;;18.29;73.46;99658.02;232728;215;140367;-62
2023/09/15 05:41:46;;;;;;;5.90;4.30;;;;;;;18.25;73.23;99659.77;232474;216;137191;-63
2023/09/15 05:46:53;;;;;;;10.50;4.80;;;;;;;18.19;73.35;99670.80;232649;217;146663;-65
2023/09/15 05:52:00;;;;;;;11.20;4.20;;;;;;;18.18;73.87;99678.25;232718;217;140313;-61
2023/09/15 05:57:07;;;;;;;10.30;3.70;;;;;;;18.23;73.80;99683.11;232676;217;137058;-63
2023/09/15 06:02:16;;;;;;;31.60;20.20;;;;;;;18.29;73.92;99679.67;232691;217;147533;-63
2023/09/15 06:07:30;;;;;;;14.60;4.00;;;;;;;18.40;73.70;99677.52;232653;215;140553;-63
2023/09/15 06:12:36;;;;;;;12.60;4.50;;;;;;;18.44;73.26;99674.66;232475;217;137569;-62
2023/09/15 06:17:41;;;;;;;13.30;4.40;;;;;;;18.48;73.11;99684.92;232797;215;147866;-61
2023/09/15 06:22:47;;;;;;;9.20;4.00;;;;;;;18.53;73.21;99683.23;232712;216;141028;-61
2023/09/15 06:27:59;;;;;;;4.10;3.10;;;;;;;18.63;72.90;99683.86;232737;216;138151;-62
2023/09/15 06:33:40;;;;;;;6.10;2.60;;;;;;;18.71;72.19;99684.80;232833;217;146219;-61
2023/09/15 06:38:49;;;;;;;3.90;2.50;;;;;;;18.79;71.05;99687.75;232712;217;140061;-62
2023/09/15 06:43:57;;;;;;;6.40;2.90;;;;;;;18.84;70.02;99687.78;232758;217;137642;-61
2023/09/15 06:49:04;;;;;;;5.00;2.80;;;;;;;18.97;68.99;99687.13;232871;217;147574;-58
2023/09/15 06:54:12;;;;;;;7.20;2.90;;;;;;;19.03;68.62;99691.20;232596;217;139297;-62
2023/09/15 06:59:28;;;;;;;8.00;3.50;;;;;;;19.09;67.82;99691.74;232595;217;140356;-61
2023/09/15 07:04:35;;;;;;;6.30;2.90;;;;;;;19.07;67.61;99692.13;232626;217;146575;-63
2023/09/15 07:09:39;;;;;;;6.80;3.60;;;;;;;19.18;67.85;99690.28;232949;217;140272;-63
2023/09/15 07:14:44;;;;;;;8.40;3.30;;;;;;;19.33;67.31;99694.87;232623;216;136671;-61
2023/09/15 07:19:50;;;;;;;5.00;2.90;;;;;;;19.43;67.39;99696.91;232717;217;146185;-63
2023/09/15 07:24:55;;;;;;;5.90;3.10;;;;;;;19.55;66.57;99695.29;232753;216;141828;-62
2023/09/15 07:30:06;;;;;;;7.30;3.30;;;;;;;19.63;66.06;99694.77;231965;216;1010015;-63
2023/09/15 07:35:15;;;;;;;9.50;3.00;;;;;;;19.77;65.73;99695.30;232974;217;145325;-62
2023/09/15 07:40:22;;;;;;;7.70;2.80;;;;;;;19.87;64.44;99696.76;232760;216;141131;-63
2023/09/15 07:45:28;;;;;;;4.80;2.80;;;;;;;19.89;64.36;99692.61;232732;217;138436;-63
2023/09/15 07:50:33;;;;;;;6.60;2.80;;;;;;;19.89;64.14;99693.88;232881;215;147761;-63
2023/09/15 07:55:38;;;;;;;4.30;2.70;;;;;;;19.92;63.95;99692.75;232644;216;139284;-64
2023/09/15 08:00:43;;;;;;;9.10;2.90;;;;;;;19.99;63.71;99695.16;232617;216;137220;-61
2023/09/15 08:05:51;;;;;;;7.90;2.70;;;;;;;20.07;63.81;99696.77;232640;217;145360;-65
2023/09/15 08:10:56;;;;;;;6.20;2.70;;;;;;;20.22;62.65;99695.54;232544;217;140399;-60
2023/09/15 08:16:03;;;;;;;11.80;5.80;;;;;;;20.46;63.28;99699.32;232616;217;138552;-59
2023/09/15 08:21:11;;;;;;;6.90;4.30;;;;;;;20.81;62.83;99696.77;232685;216;146171;-60
2023/09/15 08:26:18;;;;;;;12.10;7.10;;;;;;;20.92;61.70;99701.35;232728;216;139681;-60
2023/09/15 08:31:25;;;;;;;8.90;4.10;;;;;;;21.09;61.60;99700.11;232743;215;139447;-61
2023/09/15 08:36:32;;;;;;;5.10;3.20;;;;;;;21.29;60.95;99696.76;232799;215;146510;-61
2023/09/15 08:42:11;;;;;;;3.00;2.30;;;;;;;21.43;60.36;99696.14;232498;217;139608;-60
2023/09/15 08:47:19;;;;;;;244.20;175.90;;;;;;;21.48;59.45;99692.20;232517;217;137040;-61
2023/09/15 08:52:25;;;;;;;11.80;8.40;;;;;;;21.50;59.74;99690.36;232577;217;148229;-59
2023/09/15 08:57:35;;;;;;;4.30;2.60;;;;;;;21.79;58.88;99693.67;232793;217;139715;-60
2023/09/15 09:02:41;;;;;;;4.30;2.60;;;;;;;21.99;57.81;99691.70;232687;215;137554;-60
2023/09/15 09:07:52;;;;;;;4.80;2.60;;;;;;;22.14;57.06;99688.27;232695;217;146782;-63
2023/09/15 09:12:59;;;;;;;3.90;2.20;;;;;;;22.32;56.03;99686.52;232679;217;140758;-60
2023/09/15 09:18:17;;;;;;;4.30;2.00;;;;;;;22.41;55.34;99688.80;232684;216;137311;-59
2023/09/15 09:23:22;;;;;;;4.10;2.40;;;;;;;22.40;54.68;99692.13;232679;217;146591;-63
2023/09/15 09:28:27;;;;;;;7.20;2.00;;;;;;;22.30;54.96;99688.05;232695;217;140909;-61
2023/09/15 09:33:36;;;;;;;59.00;44.10;;;;;;;22.15;54.99;99691.42;232705;215;138655;-59
2023/09/15 09:38:51;;;;;;;15.20;11.20;;;;;;;22.15;55.12;99693.89;232774;217;146696;-61
2023/09/15 09:43:56;;;;;;;15.60;5.50;;;;;;;22.25;54.46;99692.46;232696;216;139747;-62
2023/09/15 09:49:03;;;;;;;6.70;3.00;;;;;;;22.25;54.43;99694.95;232673;215;137483;-61
2023/09/15 09:54:09;;;;;;;6.30;2.30;;;;;;;22.30;53.94;99698.09;232744;215;146060;-63
2023/09/15 09:59:17;;;;;;;5.50;2.00;;;;;;;22.29;53.21;99692.54;232718;215;140334;-62
2023/09/15 10:04:25;;;;;;;6.40;2.00;;;;;;;22.38;52.74;99690.04;232765;215;136957;-57
2023/09/15 10:09:31;;;;;;;;;;;;;;;22.55;52.27;99683.20;232883;215;146920;-62
2023/09/15 10:14:40;;;;;;;4.60;2.10;;;;;;;22.63;51.66;99675.71;232768;215;139692;-65
2023/09/15 10:19:47;;;;;;;5.60;2.00;;;;;;;22.51;51.71;99681.10;232690;215;137680;-63
2023/09/15 10:24:58;;;;;;;468.70;376.30;;;;;;;22.42;51.75;99676.39;232661;215;146216;-66
2023/09/15 10:30:07;;;;;;;25.20;18.40;;;;;;;22.27;52.38;99671.26;232667;216;139326;-61
2023/09/15 10:35:12;;;;;;;10.70;5.60;;;;;;;22.27;52.30;99671.22;232761;215;136976;-63
2023/09/15 10:40:16;;;;;;;21.80;10.80;;;;;;;22.40;52.23;99666.27;232699;215;147687;-63
2023/09/15 10:45:22;;;;;;;20.10;10.50;;;;;;;22.42;52.05;99662.11;232755;215;139618;-63
2023/09/15 10:52:35;;;;;;;23.00;16.40;;;;;;;22.42;52.05;99664.05;231306;225;723374;-67
2023/09/15 10:57:41;;;;;;;6.20;3.20;;;;;;;22.43;51.70;99663.45;232371;218;137430;-62
2023/09/15 11:02:46;;;;;;;6.40;2.40;;;;;;;22.41;51.63;99660.94;232324;219;144665;-63
2023/09/15 11:07:55;;;;;;;5.80;2.20;;;;;;;22.41;51.40;99656.91;232205;218;139583;-63
2023/09/15 11:13:02;;;;;;;2.80;2.30;;;;;;;22.39;51.50;99659.34;232579;216;137759;-65
2023/09/15 11:18:12;;;;;;;3.60;2.10;;;;;;;22.41;51.70;99654.44;232701;217;144302;-65
2023/09/15 11:23:25;;;;;;;4.70;2.10;;;;;;;22.50;51.26;99652.34;232662;217;139438;-62
2023/09/15 11:28:36;;;;;;;5.60;2.30;;;;;;;22.53;51.49;99653.05;232637;217;138250;-64
2023/09/15 11:33:42;;;;;;;4.30;2.20;;;;;;;22.71;51.07;99656.20;232810;217;144939;-66
2023/09/15 11:38:48;;;;;;;6.50;2.30;;;;;;;22.68;50.45;99659.98;232715;216;139469;-65
2023/09/15 11:43:57;;;;;;;3.20;1.90;;;;;;;22.69;50.79;99650.13;232646;217;136771;-62
2023/09/15 11:49:05;;;;;;;3.40;2.00;;;;;;;22.86;50.52;99656.25;232737;216;147220;-62
2023/09/15 11:54:11;;;;;;;7.40;2.30;;;;;;;22.80;49.92;99657.33;232479;218;138774;-64
2023/09/15 11:59:17;;;;;;;6.20;2.40;;;;;;;22.92;50.03;99647.92;232637;216;136859;-64
2023/09/15 12:04:24;;;;;;;9.40;2.70;;;;;;;23.38;49.68;99642.06;232704;216;147307;-62
2023/09/15 12:09:33;;;;;;;5.60;2.40;;;;;;;23.75;48.47;99644.33;232811;216;139736;-65
2023/09/15 12:14:42;;;;;;;4.90;2.00;;;;;;;23.68;47.78;99640.33;232717;216;138132;-64
2023/09/15 12:19:50;;;;;;;4.20;2.20;;;;;;;23.71;47.18;99636.59;232581;213;147496;-64
2023/09/15 12:24:59;;;;;;;9.00;2.30;;;;;;;23.69;47.02;99632.09;232640;215;140100;-61
2023/09/15 12:30:07;;;;;;;5.70;2.90;;;;;;;23.88;46.73;99629.88;232646;215;136590;-69
2023/09/15 12:35:14;;;;;;;5.70;2.90;;;;;;;23.93;46.28;99624.44;232619;215;148056;-65
2023/09/15 12:40:19;;;;;;;3.20;2.40;;;;;;;24.09;44.76;99615.95;232633;215;139808;-65
2023/09/15 12:45:26;;;;;;;;;;;;;;;24.44;44.71;99611.91;232708;215;137329;-64
2023/09/15 12:50:32;;;;;;;4.10;2.30;;;;;;;24.74;43.14;99606.89;232685;215;147543;-69
2023/09/15 12:55:38;;;;;;;4.10;2.40;;;;;;;25.12;43.16;99604.48;232577;215;140515;-65
2023/09/15 13:00:43;;;;;;;;;;;;;;;25.51;42.09;99603.26;232661;215;136588;-64
2023/09/15 13:05:50;;;;;;;11.30;2.50;;;;;;;25.76;41.54;99599.98;232700;215;147406;-66
2023/09/15 13:10:58;;;;;;;7.90;2.60;;;;;;;25.99;41.02;99597.15;232629;215;139224;-63
2023/09/15 13:16:06;;;;;;;4.50;2.40;;;;;;;26.36;40.19;99595.90;232750;215;136656;-64
2023/09/15 13:21:13;;;;;;;6.90;2.80;;;;;;;26.72;39.27;99591.02;232666;215;148162;-66
2023/09/15 13:26:18;;;;;;;5.40;2.50;;;;;;;27.03;38.89;99588.14;232669;215;141289;-66
2023/09/15 13:31:22;;;;;;;7.20;2.30;;;;;;;27.21;38.06;99584.30;232673;215;137925;-66
2023/09/15 13:36:28;;;;;;;5.20;2.50;;;;;;;27.45;37.12;99583.53;232620;215;146084;-65
2023/09/15 13:41:34;;;;;;;5.20;2.20;;;;;;;27.72;36.74;99577.95;232587;215;139356;-66
2023/09/15 13:46:39;;;;;;;7.10;2.70;;;;;;;27.83;36.04;99578.92;232634;215;139857;-63
2023/09/15 13:51:44;;;;;;;4.70;2.00;;;;;;;27.81;36.10;99576.65;232741;215;147035;-65
2023/09/15 13:56:48;;;;;;;4.30;2.10;;;;;;;27.46;36.21;99574.11;232610;215;140457;-63
2023/09/15 14:01:55;;;;;;;2.70;1.90;;;;;;;26.72;35.78;99572.83;232676;215;136879;-68
2023/09/15 14:07:04;;;;;;;2.70;1.90;;;;;;;26.01;36.57;99568.97;232582;215;146638;-63
2023/09/15 14:12:15;;;;;;;4.10;2.10;;;;;;;25.42;37.34;99567.94;232524;215;139875;-68
2023/09/15 14:17:25;;;;;;;3.60;2.40;;;;;;;24.97;38.00;99565.88;232599;215;138131;-66
2023/09/15 14:22:32;;;;;;;5.40;2.20;;;;;;;24.54;38.84;99564.33;232676;215;146148;-65
2023/09/15 14:27:39;;;;;;;4.90;2.20;;;;;;;24.12;38.68;99566.89;232694;215;139171;-68
2023/09/15 14:32:45;;;;;;;3.80;2.40;;;;;;;23.77;39.46;99565.23;232593;215;140058;-66
2023/09/15 14:37:49;;;;;;;5.00;2.30;;;;;;;23.57;40.37;99566.50;232632;215;146688;-65
2023/09/15 14:42:55;;;;;;;4.30;2.20;;;;;;;23.39;41.30;99562.27;232655;215;139439;-61
2023/09/15 14:48:05;;;;;;;4.20;2.50;;;;;;;23.23;42.00;99560.14;232671;213;138176;-62
2023/09/15 14:53:09;;;;;;;4.40;2.50;;;;;;;23.12;42.00;99562.63;232555;215;147128;-67
2023/09/15 14:58:14;;;;;;;4.30;2.40;;;;;;;23.01;43.70;99556.61;232698;215;140081;-64
2023/09/15 15:03:19;;;;;;;10.10;5.10;;;;;;;22.97;44.85;99560.29;232723;215;137816;-66
2023/09/15 15:08:25;;;;;;;6.20;4.10;;;;;;;22.93;44.61;99562.11;232677;215;148536;-64
2023/09/15 15:13:29;;;;;;;4.40;3.20;;;;;;;22.91;44.72;99562.81;232656;215;140298;-65
2023/09/15 15:18:35;;;;;;;7.90;2.50;;;;;;;22.85;43.94;99562.56;232711;216;137457;-65
2023/09/15 15:23:43;;;;;;;6.50;2.60;;;;;;;22.73;43.76;99561.91;232707;215;146015;-66
2023/09/15 15:28:47;;;;;;;5.20;3.10;;;;;;;22.71;44.30;99554.45;232635;215;139600;-65
2023/09/15 15:33:53;;;;;;;3.80;2.30;;;;;;;22.68;44.04;99551.46;232885;215;137160;-64
2023/09/15 15:38:58;;;;;;;6.20;2.50;;;;;;;22.62;43.85;99552.05;232717;215;147619;-66
2023/09/15 15:44:10;;;;;;;4.00;2.50;;;;;;;22.57;43.64;99562.18;232620;215;140994;-65
2023/09/15 15:49:15;;;;;;;3.80;2.70;;;;;;;22.52;43.74;99567.02;232637;215;136680;-67
2023/09/15 15:54:20;;;;;;;3.80;2.50;;;;;;;22.49;43.96;99568.88;232707;215;146686;-65
2023/09/15 15:59:26;;;;;;;4.30;2.50;;;;;;;22.46;44.39;99573.68;232650;215;140628;-65
2023/09/15 16:04:33;;;;;;;4.60;2.30;;;;;;;22.43;44.43;99573.92;232883;215;137355;-64
2023/09/15 16:09:39;;;;;;;22.90;19.10;;;;;;;22.33;44.38;99573.60;232717;215;146589;-65
2023/09/15 16:14:45;;;;;;;9.00;6.00;;;;;;;22.23;44.53;99570.61;232704;215;140921;-66
2023/09/15 16:19:50;;;;;;;10.00;5.10;;;;;;;22.16;44.75;99569.66;232700;215;136918;-63
2023/09/15 16:24:55;;;;;;;;;;;;;;;22.09;45.19;99567.08;232691;215;147305;-61
2023/09/15 16:30:00;;;;;;;10.90;3.80;;;;;;;22.09;45.83;99562.27;232761;214;140704;-64
2023/09/15 16:35:08;;;;;;;5.00;3.10;;;;;;;22.09;46.24;99558.80;232697;214;136817;-64
2023/09/15 16:40:14;;;;;;;4.20;2.70;;;;;;;22.06;46.18;99562.36;232735;215;146951;-64
2023/09/15 16:45:19;;;;;;;4.50;3.10;;;;;;;21.90;46.79;99565.00;232542;214;139466;-63
2023/09/15 16:50:25;;;;;;;10.00;4.40;;;;;;;21.75;47.34;99572.84;232601;215;137663;-64
2023/09/15 16:55:32;;;;;;;7.70;4.70;;;;;;;21.66;47.33;99576.11;232679;215;145402;-63
2023/09/15 17:00:39;;;;;;;10.00;5.00;;;;;;;21.50;48.27;99581.48;232604;213;139381;-63
2023/09/15 17:05:48;;;;;;;13.40;5.80;;;;;;;21.37;48.67;99586.57;232798;215;137873;-61
2023/09/15 17:10:54;;;;;;;9.20;3.90;;;;;;;21.32;49.25;99586.69;232787;213;147080;-65
2023/09/15 17:15:59;;;;;;;200.70;162.20;;;;;;;21.22;49.01;99593.05;232571;214;140209;-66
2023/09/15 17:21:06;;;;;;;20.50;14.80;;;;;;;20.88;49.21;99599.95;232786;215;137763;-63
2023/09/15 17:26:12;;;;;;;;;;;;;;;20.62;49.99;99601.58;232792;215;146743;-69
2023/09/15 17:31:20;;;;;;;8.90;3.80;;;;;;;20.41;50.72;99610.52;232771;215;140475;-72
2023/09/15 17:36:26;;;;;;;8.10;3.60;;;;;;;20.26;51.03;99609.09;232641;215;137364;-65
2023/09/15 17:41:31;;;;;;;;;;;;;;;20.14;51.18;99612.72;232652;215;146449;-66
2023/09/15 17:46:36;;;;;;;9.40;3.80;;;;;;;20.11;52.45;99616.96;232599;214;139317;-64
2023/09/15 17:51:42;;;;;;;8.70;4.10;;;;;;;20.11;52.27;99619.26;232587;214;138097;-64
2023/09/15 17:56:52;;;;;;;9.30;4.30;;;;;;;20.08;52.85;99620.63;232805;215;147602;-64
2023/09/15 18:01:59;;;;;;;11.70;5.20;;;;;;;20.05;52.27;99621.59;232683;214;140771;-63
2023/09/15 18:07:08;;;;;;;9.80;4.70;;;;;;;19.99;52.42;99628.84;232742;216;137320;-60
2023/09/15 18:12:15;;;;;;;76.50;53.70;;;;;;;19.96;52.62;99632.42;232679;215;146409;-68
2023/09/15 18:17:23;;;;;;;12.10;6.80;;;;;;;19.85;52.81;99631.37;232834;215;140393;-65
2023/09/15 18:22:31;;;;;;;12.30;6.70;;;;;;;19.95;53.12;99635.71;232909;215;136923;-66
2023/09/15 18:31:46;;;;;;;14.70;6.20;;;;;;;19.94;53.25;99634.89;231290;224;724458;-64
2023/09/15 18:36:51;;;;;;;10.80;5.50;;;;;;;20.03;52.91;99635.18;232565;218;137360;-63
2023/09/15 18:41:56;;;;;;;10.90;5.00;;;;;;;19.96;52.89;99639.55;232580;218;144856;-62
2023/09/15 18:47:01;;;;;;;10.10;4.90;;;;;;;19.93;52.82;99633.36;232422;218;274484;-68
2023/09/15 18:52:10;;;;;;;148.30;116.00;;;;;;;19.87;52.33;99634.27;232511;218;137194;-65
2023/09/15 18:57:15;;;;;;;14.60;7.50;;;;;;;19.69;52.57;99640.25;232491;218;144077;-66
2023/09/15 19:02:21;;;;;;;11.00;5.40;;;;;;;19.53;52.88;99644.86;232900;215;139122;-66
2023/09/15 19:07:30;;;;;;;8.70;5.10;;;;;;;19.39;53.49;99643.64;232886;215;137097;-67
2023/09/15 19:12:38;;;;;;;9.20;4.90;;;;;;;19.28;53.58;99637.55;232888;215;143158;-65
2023/09/15 19:17:43;;;;;;;60.90;50.90;;;;;;;19.26;53.74;99640.81;232875;215;140959;-68
2023/09/15 19:22:54;;;;;;;11.50;6.60;;;;;;;19.16;53.64;99649.20;233533;215;137328;-64
2023/09/15 19:28:06;;;;;;;9.10;4.90;;;;;;;18.95;53.82;99650.05;233597;215;146621;-66
2023/09/15 19:33:12;;;;;;;7.60;4.20;;;;;;;18.72;54.23;99646.59;233467;215;139858;-68
2023/09/15 19:38:18;;;;;;;8.20;4.30;;;;;;;18.53;54.29;99647.35;233529;215;131118;-67
2023/09/15 19:43:24;;;;;;;7.00;4.10;;;;;;;18.39;54.54;99649.74;233248;215;146550;-69
2023/09/15 19:48:28;;;;;;;6.60;4.10;;;;;;;18.31;54.93;99653.29;232970;216;140222;-68
2023/09/15 19:53:33;;;;;;;6.60;3.90;;;;;;;18.21;55.10;99656.27;232834;215;136386;-71
2023/09/15 19:58:38;;;;;;;7.60;4.70;;;;;;;18.13;55.56;99659.27;232766;215;146562;-70
2023/09/15 20:03:46;;;;;;;7.80;4.30;;;;;;;18.05;55.87;99659.48;232794;216;140283;-68
2023/09/15 20:08:58;;;;;;;7.80;4.50;;;;;;;17.93;56.14;99665.27;232833;216;261768;-68
2023/09/15 20:14:07;;;;;;;6.80;4.00;;;;;;;17.81;56.37;99661.80;232856;216;146499;-67
2023/09/15 20:19:15;;;;;;;9.00;4.40;;;;;;;17.70;56.62;99663.30;232715;215;139311;-66
2023/09/15 20:24:20;;;;;;;7.30;4.20;;;;;;;17.62;57.06;99661.51;232943;216;137196;-68
2023/09/15 20:29:26;;;;;;;;;;;;;;;17.52;57.49;99659.77;232736;215;148297;-63
2023/09/15 20:34:31;;;;;;;6.90;4.10;;;;;;;17.42;57.67;99657.35;232834;216;139328;-70
2023/09/15 20:39:37;;;;;;;6.50;3.80;;;;;;;17.33;57.96;99657.39;232719;216;137167;-71
2023/09/15 20:44:43;;;;;;;5.40;3.80;;;;;;;17.24;58.14;99655.17;232738;216;146740;-69
2023/09/15 20:49:48;;;;;;;6.50;4.30;;;;;;;17.17;58.26;99656.50;232789;216;140479;-70
2023/09/15 20:54:55;;;;;;;7.60;4.00;;;;;;;17.12;58.77;99653.83;232910;215;137759;-67
2023/09/15 21:00:01;;;;;;;8.30;4.20;;;;;;;17.08;59.06;99651.66;232804;215;145251;-64
2023/09/15 21:05:08;;;;;;;8.20;4.50;;;;;;;17.02;59.56;99646.61;232703;216;140425;-68
2023/09/15 21:10:15;;;;;;;6.70;4.40;;;;;;;16.94;59.96;99648.80;232781;216;136928;-68
2023/09/15 21:15:20;;;;;;;;;;;;;;;16.88;60.34;99646.45;232704;215;146236;-67
2023/09/15 21:20:25;;;;;;;7.30;4.50;;;;;;;16.79;60.48;99642.30;232805;215;139605;-70
2023/09/15 21:25:34;;;;;;;8.30;4.80;;;;;;;16.71;60.65;99642.20;232575;213;136634;-66
2023/09/15 21:30:40;;;;;;;7.70;3.90;;;;;;;16.64;60.93;99643.42;232690;214;147992;-67
2023/09/15 21:35:48;;;;;;;7.90;4.50;;;;;;;16.57;61.24;99647.73;232547;214;139298;-67
2023/09/15 21:40:54;;;;;;;9.30;4.40;;;;;;;16.53;61.43;99649.27;232465;214;136968;-66
2023/09/15 21:46:01;;;;;;;7.80;4.20;;;;;;;16.49;61.66;99648.54;232477;213;146709;-65
2023/09/15 21:51:07;;;;;;;8.20;4.60;;;;;;;16.45;61.97;99652.63;232533;214;139908;-65
2023/09/15 21:56:12;;;;;;;9.60;4.10;;;;;;;16.39;62.25;99645.18;232627;214;137693;-68
2023/09/15 22:01:18;;;;;;;7.20;4.60;;;;;;;16.34;62.53;99638.58;232542;214;146541;-65
2023/09/15 22:06:25;;;;;;;10.20;4.70;;;;;;;16.29;63.02;99640.39;232635;214;140478;-68
2023/09/15 22:11:35;;;;;;;8.20;4.40;;;;;;;16.25;63.17;99644.05;232655;214;137529;-62
2023/09/15 22:16:42;;;;;;;7.80;4.90;;;;;;;16.22;63.32;99639.32;232727;215;146255;-62
2023/09/15 22:21:51;;;;;;;13.30;4.80;;;;;;;16.17;63.69;99643.25;232663;215;139285;-67
2023/09/15 22:26:56;;;;;;;13.40;9.90;;;;;;;16.14;63.83;99642.26;232902;215;137224;-67
2023/09/15 22:32:03;;;;;;;13.00;8.40;;;;;;;16.09;64.02;99637.96;232713;215;146747;-61
2023/09/15 22:37:07;;;;;;;12.50;7.30;;;;;;;16.03;64.07;99645.58;232679;215;139381;-70
2023/09/15 22:42:13;;;;;;;10.20;6.60;;;;;;;15.97;64.32;99643.69;232785;215;137183;-68
2023/09/15 22:47:20;;;;;;;10.80;5.80;;;;;;;15.93;64.70;99641.67;232747;215;146156;-67
2023/09/15 22:52:30;;;;;;;8.70;5.60;;;;;;;15.90;64.73;99642.23;232709;215;141014;-68
2023/09/15 22:57:38;;;;;;;10.70;5.00;;;;;;;15.88;64.99;99641.15;232786;215;137118;-69
2023/09/15 23:02:47;;;;;;;10.60;5.10;;;;;;;15.88;65.19;99640.11;232775;215;145750;-66
2023/09/15 23:07:56;;;;;;;9.70;5.50;;;;;;;15.94;65.12;99639.85;232708;215;140390;-70
2023/09/15 23:13:02;;;;;;;10.30;5.70;;;;;;;15.93;65.01;99638.77;232769;214;138068;-58
2023/09/15 23:18:08;;;;;;;9.20;5.40;;;;;;;15.95;64.99;99637.97;232703;215;146703;-69
2023/09/15 23:23:15;;;;;;;8.90;5.40;;;;;;;15.92;64.89;99635.52;232758;215;140753;-72
2023/09/15 23:28:21;;;;;;;9.70;5.80;;;;;;;15.85;65.00;99637.75;232742;215;136924;-67
2023/09/15 23:33:28;;;;;;;12.10;6.60;;;;;;;15.79;65.07;99639.65;232663;215;147052;-67
2023/09/15 23:38:35;;;;;;;10.40;6.10;;;;;;;15.74;65.13;99631.27;232560;215;140429;-69
2023/09/15 23:43:41;;;;;;;9.40;6.60;;;;;;;15.72;65.23;99628.40;232719;214;138905;-69
2023/09/15 23:48:51;;;;;;;10.40;6.30;;;;;;;15.65;65.35;99623.66;232845;215;147414;-67
2023/09/15 23:53:58;;;;;;;9.60;5.60;;;;;;;15.60;65.58;99621.71;232732;215;139627;-66
2023/09/15 23:59:05;;;;;;;13.00;5.40;;;;;;;15.57;65.64;99626.58;232681;214;137572;-62
